Parson, Canada
Current Conditions -  °F | °C
As of 5:00 PM on Sunday 23 Nov 2014 (Local Time) from CYGE Reporting Station
Overcast Overcast  
Wind Chill: 30°   Ceiling: 7000
Heat Index: 30°   Visibility: 20mi
Dew Point: 27°   Wind: 3mph
Humidity: 86%   Direction: 160°SSE
Pressure: 29.86"   Gusts: NA
Location:  51.1°N, 116.7°W
Report Text: CYGE 240000Z 16003KT 110V190 20SM FEW018 BKN070 OVC090 M01/M03 A2986 RMK SC2AS4AS2 SH E LAST OBS/NEXT 241400Z SLP148
Loading
Personal Weather Stations






























Interactive Weather Map New forecast layout! Learn more

10-Day Weather Forecast

Advertisements
Track Severe Weather on mobile